createdAt,value
2022-12-01T00:01:13.851Z,96391.19
2022-12-01T00:03:40.471Z,96363.59
2022-12-01T00:06:15.869Z,96408.25
2022-12-01T00:09:06.434Z,96379.44
2022-12-01T00:11:34.321Z,96360.47
2022-12-01T00:14:01.416Z,96386.56
2022-12-01T00:16:28.304Z,96388.97
2022-12-01T00:18:54.997Z,96361.88
2022-12-01T00:21:24.030Z,96377.94
2022-12-01T00:23:53.183Z,96373.97
2022-12-01T00:26:21.462Z,96381.09
2022-12-01T00:28:52.517Z,96361.59
2022-12-01T00:31:19.839Z,96369.41
2022-12-01T00:33:46.756Z,96344.06
2022-12-01T00:36:13.592Z,96371.22
2022-12-01T00:38:40.202Z,96379.09
2022-12-01T00:41:06.863Z,96372.78
2022-12-01T00:43:33.562Z,96372.47
2022-12-01T00:46:00.253Z,96393.28
2022-12-01T00:48:27.216Z,96327.19
2022-12-01T00:50:54.778Z,96352.78
2022-12-01T00:53:22.540Z,96380.69
2022-12-01T00:55:49.306Z,96372.56
2022-12-01T00:58:15.845Z,96369.72
2022-12-01T01:00:43.106Z,96379.50
2022-12-01T01:03:10.909Z,96387.06
2022-12-01T01:05:38.791Z,96377.84
2022-12-01T01:08:11.209Z,96391.22
2022-12-01T01:10:39.521Z,96382.66
2022-12-01T01:13:06.292Z,96374.31
2022-12-01T01:15:33.270Z,96384.16
2022-12-01T01:18:00.857Z,96384.16
2022-12-01T01:20:28.246Z,96384.09
2022-12-01T01:22:54.955Z,96373.63
2022-12-01T01:25:21.681Z,96354.75
2022-12-01T01:27:48.398Z,96379.19
2022-12-01T01:30:15.506Z,96372.16
2022-12-01T01:32:42.155Z,96382.50
2022-12-01T01:35:09.021Z,96371.81
2022-12-01T01:37:35.603Z,96388.31
2022-12-01T01:40:02.203Z,96373.91
2022-12-01T01:42:30.921Z,96353.69
2022-12-01T01:44:59.202Z,96383.59
2022-12-01T01:47:29.553Z,96375.31
2022-12-01T01:50:00.652Z,96389.22
2022-12-01T01:52:28.121Z,96370.41
2022-12-01T01:54:55.674Z,96376.31
2022-12-01T01:57:29.554Z,96378.19
2022-12-01T02:00:10.034Z,96360.78
2022-12-01T02:02:46.194Z,96376.38
2022-12-01T02:05:17.907Z,96357.25
2022-12-01T02:07:45.512Z,96342.50
2022-12-01T02:10:14.414Z,96312.19
2022-12-01T02:12:47.059Z,96365.94
2022-12-01T02:15:52.136Z,96361.19
2022-12-01T02:18:35.187Z,96353.44
2022-12-01T02:21:43.358Z,96360.78
2022-12-01T02:24:31.372Z,96360.34
2022-12-01T02:27:02.449Z,96365.59
2022-12-01T02:29:57.296Z,96359.19
2022-12-01T02:32:47.222Z,96355.38
2022-12-01T02:35:55.770Z,96349.16
2022-12-01T02:38:38.121Z,96341.22
2022-12-01T02:41:16.686Z,96355.97
2022-12-01T02:43:46.092Z,96355.81
2022-12-01T02:46:18.255Z,96354.16
2022-12-01T02:48:49.303Z,96367.47
2022-12-01T02:51:19.025Z,96341.09
2022-12-01T02:53:46.599Z,96343.94
2022-12-01T02:56:16.008Z,96351.06
2022-12-01T02:58:43.814Z,96334.25
2022-12-01T03:01:19.069Z,96338.97
2022-12-01T03:04:04.635Z,96346.00
2022-12-01T03:06:54.414Z,96346.00
2022-12-01T03:10:08.851Z,96330.84
2022-12-01T03:12:55.708Z,96336.81
2022-12-01T03:15:30.440Z,96348.06
2022-12-01T03:18:07.695Z,96350.03
2022-12-01T03:20:40.811Z,96364.31
2022-12-01T03:23:21.194Z,96344.31
2022-12-01T03:25:51.813Z,96338.19
2022-12-01T03:28:33.463Z,96368.97
2022-12-01T03:31:07.271Z,96330.53
2022-12-01T03:33:43.773Z,96343.06
2022-12-01T03:36:16.723Z,96336.25
2022-12-01T03:38:47.703Z,96341.25
2022-12-01T03:41:19.711Z,96346.56
2022-12-01T03:43:55.489Z,96306.25
2022-12-01T03:46:47.807Z,96343.63
2022-12-01T03:49:17.293Z,96332.13
2022-12-01T03:51:49.989Z,96347.94
2022-12-01T03:54:23.151Z,96345.88
2022-12-01T03:56:55.411Z,96333.97
2022-12-01T03:59:25.075Z,96362.31
2022-12-01T04:01:51.872Z,96341.09
2022-12-01T04:04:19.278Z,96344.38
2022-12-01T04:06:50.201Z,96339.31
2022-12-01T04:09:17.240Z,96334.78
2022-12-01T04:12:02.378Z,96338.53
2022-12-01T04:14:30.008Z,96353.34
2022-12-01T04:16:56.648Z,96340.25
2022-12-01T04:19:23.187Z,96337.44
2022-12-01T04:21:49.888Z,96331.94
2022-12-01T04:24:16.467Z,96340.94
2022-12-01T04:26:43.518Z,96340.25
2022-12-01T04:29:11.603Z,96337.94
2022-12-01T04:31:38.705Z,96338.53
2022-12-01T04:34:05.432Z,96348.88
2022-12-01T04:36:34.176Z,96341.34
2022-12-01T04:39:01.970Z,96335.06
2022-12-01T04:41:28.848Z,96338.44
2022-12-01T04:43:55.852Z,96322.22
2022-12-01T04:46:23.433Z,96334.84
2022-12-01T04:48:50.171Z,96333.81
2022-12-01T04:51:16.885Z,96317.72
2022-12-01T04:53:45.596Z,96363.03
2022-12-01T04:56:12.269Z,96307.56
2022-12-01T04:58:39.118Z,96353.78
2022-12-01T05:01:09.421Z,96338.59
2022-12-01T05:03:38.227Z,96349.88
2022-12-01T05:06:07.521Z,96321.97
2022-12-01T05:08:34.341Z,96311.13
2022-12-01T05:11:02.097Z,96343.31
2022-12-01T05:13:28.963Z,96345.50
2022-12-01T05:16:06.175Z,96344.78
2022-12-01T05:18:33.372Z,96338.34
2022-12-01T05:21:00.634Z,96340.00
2022-12-01T05:23:30.779Z,96347.19
2022-12-01T05:25:57.614Z,96353.84
2022-12-01T05:28:26.820Z,96349.09
2022-12-01T05:30:54.610Z,96374.06
2022-12-01T05:33:22.929Z,96337.13
2022-12-01T05:35:50.600Z,96351.66
2022-12-01T05:38:18.125Z,96345.31
2022-12-01T05:40:53.405Z,96346.66
2022-12-01T05:43:27.137Z,96354.34
2022-12-01T05:45:56.535Z,96360.28
2022-12-01T05:48:23.792Z,96361.78
2022-12-01T05:50:50.394Z,96327.97
2022-12-01T05:53:17.921Z,96357.47
2022-12-01T05:55:44.818Z,96346.03
2022-12-01T05:58:11.816Z,96359.44
2022-12-01T06:00:45.298Z,96338.91
2022-12-01T06:03:13.214Z,96356.63
2022-12-01T06:05:40.557Z,96364.75
2022-12-01T06:08:07.754Z,96326.50
2022-12-01T06:10:34.563Z,96355.38
2022-12-01T06:13:01.225Z,96340.06
2022-12-01T06:15:27.801Z,96369.31
2022-12-01T06:17:54.838Z,96349.88
2022-12-01T06:20:21.385Z,96350.03
2022-12-01T06:22:48.372Z,96337.44
2022-12-01T06:25:15.098Z,96355.91
2022-12-01T06:27:41.705Z,96376.13
2022-12-01T06:30:09.151Z,96351.50
2022-12-01T06:32:36.192Z,96360.44
2022-12-01T06:35:03.039Z,96355.91
2022-12-01T06:37:29.721Z,96377.69
2022-12-01T06:39:56.451Z,96394.44
2022-12-01T06:42:23.187Z,96362.00
2022-12-01T06:44:49.971Z,96355.03
2022-12-01T06:47:16.626Z,96384.19
2022-12-01T06:49:43.231Z,96386.88
2022-12-01T06:52:10.497Z,96383.31
2022-12-01T06:54:37.675Z,96368.88
2022-12-01T06:57:04.787Z,96385.50
2022-12-01T06:59:31.606Z,96392.19
2022-12-01T07:01:58.815Z,96376.44
2022-12-01T07:04:25.452Z,96370.66
2022-12-01T07:06:52.038Z,96384.97
2022-12-01T07:09:18.678Z,96375.13
2022-12-01T07:11:45.253Z,96391.47
2022-12-01T07:14:19.740Z,96383.81
2022-12-01T07:16:46.301Z,96341.91
2022-12-01T07:19:13.091Z,96395.34
2022-12-01T07:21:39.896Z,96392.66
2022-12-01T07:24:07.053Z,96388.81
2022-12-01T07:26:33.674Z,96393.13
2022-12-01T07:29:00.261Z,96393.00
2022-12-01T07:31:26.937Z,96376.19
2022-12-01T07:33:53.521Z,96381.50
2022-12-01T07:36:20.226Z,96406.34
2022-12-01T07:38:46.861Z,96380.75
2022-12-01T07:41:15.955Z,96391.78
2022-12-01T07:43:42.819Z,96409.19
2022-12-01T07:46:22.196Z,96404.63
2022-12-01T07:48:49.687Z,96402.31
2022-12-01T07:51:17.179Z,96411.44
2022-12-01T07:53:45.358Z,96408.88
2022-12-01T07:56:12.432Z,96382.22
2022-12-01T07:58:39.568Z,96418.97
2022-12-01T08:01:12.589Z,96398.00
2022-12-01T08:03:40.033Z,96407.59
2022-12-01T08:06:07.642Z,96413.25
2022-12-01T08:08:36.041Z,96436.81
2022-12-01T08:11:05.335Z,96407.47
2022-12-01T08:13:32.721Z,96416.06
2022-12-01T08:16:05.739Z,96414.44
2022-12-01T08:18:35.617Z,96417.28
2022-12-01T08:21:03.008Z,96422.91
2022-12-01T08:23:29.639Z,96404.63
2022-12-01T08:26:00.033Z,96414.91
2022-12-01T08:28:26.922Z,96414.75
2022-12-01T08:30:53.602Z,96403.94
2022-12-01T08:33:20.226Z,96408.41
2022-12-01T08:35:46.790Z,96408.25
2022-12-01T08:38:13.286Z,96408.41
2022-12-01T08:40:39.822Z,96411.91
2022-12-01T08:43:06.424Z,96420.84
2022-12-01T08:45:33.152Z,96416.38
2022-12-01T08:47:59.885Z,96418.50
2022-12-01T08:50:27.582Z,96408.69
2022-12-01T08:52:54.550Z,96410.91
2022-12-01T08:55:22.064Z,96417.63
2022-12-01T08:57:48.665Z,96400.06
2022-12-01T09:00:16.225Z,96419.09
2022-12-01T09:02:42.779Z,96414.03
2022-12-01T09:05:09.828Z,96410.03
2022-12-01T09:07:36.413Z,96414.56
2022-12-01T09:10:03.055Z,96417.53
2022-12-01T09:12:30.196Z,96428.97
2022-12-01T09:14:56.865Z,96424.19
2022-12-01T09:17:23.890Z,96417.13
2022-12-01T09:19:50.768Z,96422.91
2022-12-01T09:22:17.579Z,96426.47
2022-12-01T09:24:44.100Z,96431.38
2022-12-01T09:27:10.736Z,96432.41
2022-12-01T09:29:37.370Z,96405.34
2022-12-01T09:32:03.895Z,96434.94
2022-12-01T09:34:30.504Z,96425.13
2022-12-01T09:36:58.536Z,96413.66
2022-12-01T09:39:25.375Z,96423.63
2022-12-01T09:41:59.645Z,96426.00
2022-12-01T09:44:30.220Z,96427.50
2022-12-01T09:47:06.562Z,96414.88
2022-12-01T09:49:36.096Z,96428.25
2022-12-01T09:52:02.736Z,96419.78
2022-12-01T09:54:30.434Z,96404.31
2022-12-01T09:56:59.497Z,96403.56
2022-12-01T09:59:32.699Z,96411.31
2022-12-01T10:02:03.323Z,96403.41
2022-12-01T10:04:46.858Z,96401.94
2022-12-01T10:07:30.460Z,96404.31
2022-12-01T10:10:05.048Z,96395.41
2022-12-01T10:12:34.417Z,96394.69
2022-12-01T10:15:15.496Z,96395.41
2022-12-01T10:18:14.304Z,96392.88
2022-12-01T10:21:18.594Z,96384.56
2022-12-01T10:23:54.288Z,96386.06
2022-12-01T10:26:31.392Z,96375.94
2022-12-01T10:29:13.213Z,96384.44
2022-12-01T10:31:51.991Z,96381.06
2022-12-01T10:34:23.807Z,96381.19
2022-12-01T10:36:50.402Z,96376.28
2022-12-01T10:39:23.891Z,96373.59
2022-12-01T10:41:50.931Z,96377.03
2022-12-01T10:44:19.042Z,96366.63
2022-12-01T10:46:55.222Z,96368.41
2022-12-01T10:49:36.177Z,96362.88
2022-12-01T10:52:02.710Z,96368.13
2022-12-01T10:54:40.740Z,96366.94
2022-12-01T10:57:15.144Z,96375.56
2022-12-01T11:00:01.396Z,96366.94
2022-12-01T11:02:30.925Z,96366.03
2022-12-01T11:05:03.085Z,96352.19
2022-12-01T11:07:33.837Z,96362.47
2022-12-01T11:10:06.337Z,96355.31
2022-12-01T11:12:33.852Z,96360.97
2022-12-01T11:15:01.697Z,96362.16
2022-12-01T11:17:57.002Z,96369.16
2022-12-01T11:20:27.667Z,96357.53
2022-12-01T11:23:21.531Z,96360.38
2022-12-01T11:26:08.938Z,96356.97
2022-12-01T11:28:36.915Z,96356.22
2022-12-01T11:31:08.563Z,96349.97
2022-12-01T11:33:56.266Z,96348.50
2022-12-01T11:36:27.867Z,96334.94
2022-12-01T11:39:01.670Z,96337.91
2022-12-01T11:41:33.131Z,96341.78
2022-12-01T11:44:04.097Z,96354.00
2022-12-01T11:46:46.273Z,96346.84
2022-12-01T11:49:19.394Z,96340.44
2022-12-01T11:51:46.188Z,96352.50
2022-12-01T11:54:23.132Z,96351.16
2022-12-01T11:57:17.360Z,96340.72
2022-12-01T11:59:37.993Z,96330.91
2022-12-01T12:02:46.740Z,96339.69
2022-12-01T12:05:38.020Z,96340.44
2022-12-01T12:08:12.042Z,96344.75
2022-12-01T12:10:49.785Z,96338.53
2022-12-01T12:13:16.306Z,96337.19
2022-12-01T12:16:19.372Z,96336.00
2022-12-01T12:19:14.756Z,96344.63
2022-12-01T12:21:50.375Z,96330.50
2022-12-01T12:24:52.473Z,96333.34
2022-12-01T12:27:44.183Z,96328.25
2022-12-01T12:30:29.798Z,96331.09
2022-12-01T12:33:23.827Z,96322.63
2022-12-01T12:36:08.808Z,96322.47
2022-12-01T12:38:54.730Z,96322.63
2022-12-01T12:41:29.606Z,96324.09
2022-12-01T12:44:02.118Z,96327.69
2022-12-01T12:46:40.474Z,96326.94
2022-12-01T12:49:21.979Z,96332.72
2022-12-01T12:52:08.079Z,96326.19
2022-12-01T12:54:59.502Z,96322.19
2022-12-01T12:57:37.420Z,96327.09
2022-12-01T13:00:13.863Z,96317.72
2022-12-01T13:02:48.419Z,96316.25
2022-12-01T13:05:23.706Z,96307.47
2022-12-01T13:07:52.975Z,96318.91
2022-12-01T13:10:32.749Z,96315.34
2022-12-01T13:13:20.996Z,96323.22
2022-12-01T13:15:50.612Z,96324.56
2022-12-01T13:18:29.006Z,96317.28
2022-12-01T13:20:57.380Z,96308.03
2022-12-01T13:23:24.647Z,96326.91
2022-12-01T13:25:55.694Z,96326.34
2022-12-01T13:28:29.924Z,96325.56
2022-12-01T13:31:02.896Z,96314.88
2022-12-01T13:33:30.126Z,96325.91
2022-12-01T13:36:30.015Z,96314.75
2022-12-01T13:39:11.960Z,96317.56
2022-12-01T13:41:39.793Z,96311.16
2022-12-01T13:44:20.282Z,96318.13
2022-12-01T13:46:46.939Z,96319.50
2022-12-01T13:49:42.486Z,96316.81
2022-12-01T13:52:21.103Z,96316.09
2022-12-01T13:55:09.609Z,96317.72
2022-12-01T13:58:13.030Z,96315.63
2022-12-01T14:00:41.264Z,96310.16
2022-12-01T14:03:20.099Z,96316.97
2022-12-01T14:05:53.249Z,96317.72
2022-12-01T14:08:24.514Z,96311.31
2022-12-01T14:11:00.592Z,96316.25
2022-12-01T14:13:28.846Z,96316.97
2022-12-01T14:15:58.853Z,96318.47
2022-12-01T14:18:33.229Z,96305.81
2022-12-01T14:21:01.944Z,96309.56
2022-12-01T14:23:33.814Z,96305.53
2022-12-01T14:26:20.667Z,96304.66
2022-12-01T14:29:07.572Z,96313.28
2022-12-01T14:31:34.129Z,96318.47
2022-12-01T14:34:19.226Z,96330.66
2022-12-01T14:36:54.490Z,96320.84
2022-12-01T14:39:23.605Z,96318.94
2022-12-01T14:41:56.782Z,96307.63
2022-12-01T14:44:43.530Z,96316.09
2022-12-01T14:47:10.311Z,96318.94
2022-12-01T14:49:47.276Z,96320.41
2022-12-01T14:52:32.514Z,96321.16
2022-12-01T14:55:02.840Z,96318.03
2022-12-01T14:57:34.413Z,96313.56
2022-12-01T15:00:06.328Z,96325.59
2022-12-01T15:02:33.171Z,96300.63
2022-12-01T15:05:09.593Z,96323.53
2022-12-01T15:07:45.715Z,96321.44
2022-12-01T15:10:17.904Z,96318.63
2022-12-01T15:12:44.861Z,96315.94
2022-12-01T15:15:24.170Z,96320.25
2022-12-01T15:17:52.481Z,96317.88
2022-12-01T15:20:28.369Z,96321.75
2022-12-01T15:22:55.981Z,96314.91
2022-12-01T15:25:23.693Z,96326.97
2022-12-01T15:28:17.705Z,96314.91
2022-12-01T15:30:47.836Z,96335.59
2022-12-01T15:33:25.526Z,96310.00
2022-12-01T15:35:54.370Z,96316.09
2022-12-01T15:38:28.801Z,96329.75
2022-12-01T15:43:43.223Z,96323.66
2022-12-01T15:46:15.285Z,96328.75
2022-12-01T15:48:42.951Z,96328.75
2022-12-01T15:51:18.046Z,96319.50
2022-12-01T15:53:59.622Z,96312.50
2022-12-01T15:56:30.494Z,96324.88
2022-12-01T15:59:19.443Z,96321.28
2022-12-01T16:01:46.048Z,96330.53
2022-12-01T16:04:26.375Z,96328.59
2022-12-01T16:07:09.224Z,96330.81
2022-12-01T16:09:40.219Z,96327.41
2022-12-01T16:12:21.785Z,96335.28
2022-12-01T16:15:03.239Z,96328.28
2022-12-01T16:17:48.869Z,96323.81
2022-12-01T16:20:33.233Z,96335.56
2022-12-01T16:23:22.381Z,96324.88
2022-12-01T16:25:49.102Z,96328.72
2022-12-01T16:28:23.177Z,96323.81
2022-12-01T16:30:51.160Z,96329.47
2022-12-01T16:33:22.139Z,96335.13
2022-12-01T16:35:49.352Z,96327.09
2022-12-01T16:38:20.633Z,96343.75
2022-12-01T16:40:49.124Z,96330.97
2022-12-01T16:43:17.923Z,96321.72
2022-12-01T16:45:46.965Z,96327.53
2022-12-01T16:48:13.521Z,96317.88
2022-12-01T16:50:40.334Z,96324.25
2022-12-01T16:53:06.877Z,96325.31
2022-12-01T16:55:47.618Z,96333.94
2022-12-01T16:58:14.466Z,96319.03
2022-12-01T17:00:41.544Z,96320.53
2022-12-01T17:03:15.949Z,96316.97
2022-12-01T17:05:42.650Z,96324.69
2022-12-01T17:08:09.199Z,96319.78
2022-12-01T17:10:35.773Z,96306.28
2022-12-01T17:13:02.279Z,96316.06
2022-12-01T17:15:30.490Z,96316.25
2022-12-01T17:17:57.084Z,96320.69
2022-12-01T17:20:24.735Z,96317.72
2022-12-01T17:22:51.739Z,96321.72
2022-12-01T17:25:18.368Z,96323.06
2022-12-01T17:27:45.735Z,96305.06
2022-12-01T17:30:12.930Z,96315.03
2022-12-01T17:32:39.496Z,96311.31
2022-12-01T17:35:06.459Z,96317.44
2022-12-01T17:37:33.021Z,96318.16
2022-12-01T17:39:59.747Z,96317.59
2022-12-01T17:42:26.220Z,96340.50
2022-12-01T17:44:52.820Z,96319.66
2022-12-01T17:47:19.500Z,96328.84
2022-12-01T17:49:46.038Z,96328.72
2022-12-01T17:52:12.693Z,96328.41
2022-12-01T17:54:39.327Z,96313.41
2022-12-01T17:57:07.307Z,96321.13
2022-12-01T17:59:36.655Z,96329.75
2022-12-01T18:02:04.564Z,96323.34
2022-12-01T18:04:32.001Z,96318.75
2022-12-01T18:06:59.434Z,96327.66
2022-12-01T18:09:26.780Z,96315.19
2022-12-01T18:11:56.280Z,96319.66
2022-12-01T18:14:23.923Z,96327.09
2022-12-01T18:16:50.925Z,96324.97
2022-12-01T18:19:17.713Z,96325.13
2022-12-01T18:21:44.293Z,96336.00
2022-12-01T18:24:11.059Z,96325.59
2022-12-01T18:26:39.883Z,96333.03
2022-12-01T18:29:12.910Z,96341.50
2022-12-01T18:31:40.938Z,96338.69
2022-12-01T18:34:08.962Z,96342.09
2022-12-01T18:36:38.142Z,96324.41
2022-12-01T18:39:07.681Z,96340.59
2022-12-01T18:41:35.312Z,96328.56
2022-12-01T18:44:02.408Z,96341.38
2022-12-01T18:46:29.333Z,96331.25
2022-12-01T18:49:04.590Z,96338.69
2022-12-01T18:51:36.626Z,96329.00
2022-12-01T18:54:05.211Z,96335.72
2022-12-01T18:56:32.535Z,96329.47
2022-12-01T18:59:06.208Z,96348.50
2022-12-01T19:01:36.590Z,96337.34
2022-12-01T19:04:04.408Z,96331.69
2022-12-01T19:06:32.744Z,96319.03
2022-12-01T19:09:01.105Z,96350.31
2022-12-01T19:11:28.351Z,96329.19
2022-12-01T19:13:58.326Z,96343.88
2022-12-01T19:16:25.722Z,96341.94
2022-12-01T19:18:52.798Z,96362.31
2022-12-01T19:21:20.347Z,96335.09
2022-12-01T19:23:48.207Z,96348.06
2022-12-01T19:26:20.501Z,96333.03
2022-12-01T19:28:48.073Z,96330.03
2022-12-01T19:31:20.597Z,96349.09
2022-12-01T19:33:47.458Z,96319.63
2022-12-01T19:36:23.703Z,96339.53
2022-12-01T19:38:51.634Z,96339.41
2022-12-01T19:41:20.663Z,96329.75
2022-12-01T19:43:47.816Z,96328.75
2022-12-01T19:46:17.779Z,96340.03
2022-12-01T19:48:45.284Z,96313.56
2022-12-01T19:51:20.801Z,96302.84
2022-12-01T19:53:47.773Z,96338.06
2022-12-01T19:56:14.504Z,96298.22
2022-12-01T19:58:41.309Z,96344.47
2022-12-01T20:01:10.501Z,96343.56
2022-12-01T20:03:38.152Z,96312.06
2022-12-01T20:06:08.034Z,96343.56
2022-12-01T20:08:36.066Z,96326.75
2022-12-01T20:11:04.385Z,96333.59
2022-12-01T20:13:36.123Z,96334.03
2022-12-01T20:16:06.184Z,96330.50
2022-12-01T20:18:33.618Z,96322.16
2022-12-01T20:21:10.027Z,96345.53
2022-12-01T20:23:37.549Z,96327.81
2022-12-01T20:26:06.681Z,96341.66
2022-12-01T20:28:34.232Z,96333.78
2022-12-01T20:31:01.126Z,96346.72
2022-12-01T20:33:29.033Z,96334.38
2022-12-01T20:35:57.764Z,96344.47
2022-12-01T20:38:27.679Z,96343.88
2022-12-01T20:40:54.581Z,96338.69
2022-12-01T20:43:21.264Z,96345.81
2022-12-01T20:45:48.225Z,96337.78
2022-12-01T20:48:15.668Z,96339.88
2022-12-01T20:50:43.484Z,96326.03
2022-12-01T20:53:10.422Z,96333.63
2022-12-01T20:55:37.807Z,96297.94
2022-12-01T20:58:08.606Z,96337.47
2022-12-01T21:00:38.434Z,96333.16
2022-12-01T21:03:06.019Z,96300.16
2022-12-01T21:05:33.182Z,96324.69
2022-12-01T21:08:01.588Z,96335.38
2022-12-01T21:10:28.591Z,96342.13
2022-12-01T21:13:23.953Z,96303.75
2022-12-01T21:16:01.889Z,96325.16
2022-12-01T21:19:00.254Z,96312.66
2022-12-01T21:21:34.532Z,96316.69
2022-12-01T21:24:22.292Z,96320.53
2022-12-01T21:27:21.556Z,96277.72
2022-12-01T21:29:49.459Z,96324.97
2022-12-01T21:32:33.296Z,96318.00
2022-12-01T21:35:21.330Z,96329.28
2022-12-01T21:37:49.421Z,96317.09
2022-12-01T21:40:23.713Z,96330.94
2022-12-01T21:42:51.515Z,96320.53
2022-12-01T21:45:31.972Z,96326.91
2022-12-01T21:48:13.644Z,96330.81
2022-12-01T21:50:40.254Z,96280.53
2022-12-01T21:53:15.941Z,96315.63
2022-12-01T21:55:45.316Z,96301.53
2022-12-01T21:58:24.678Z,96321.75
2022-12-01T22:00:54.147Z,96323.66
2022-12-01T22:03:42.523Z,96330.81
2022-12-01T22:06:30.420Z,96329.94
2022-12-01T22:09:11.661Z,96322.19
2022-12-01T22:11:38.426Z,96311.91
2022-12-01T22:14:16.050Z,96313.69
2022-12-01T22:16:45.190Z,96303.44
2022-12-01T22:19:14.569Z,96305.19
2022-12-01T22:21:54.606Z,96308.63
2022-12-01T22:24:24.178Z,96307.59
2022-12-01T22:26:57.862Z,96308.78
2022-12-01T22:29:35.872Z,96304.03
2022-12-01T22:32:14.707Z,96307.75
2022-12-01T22:35:13.466Z,96306.41
2022-12-01T22:37:49.526Z,96312.06
2022-12-01T22:40:48.356Z,96291.53
2022-12-01T22:43:25.333Z,96300.44
2022-12-01T22:46:01.845Z,96293.31
2022-12-01T22:48:47.655Z,96298.38
2022-12-01T22:51:14.226Z,96298.38
2022-12-01T22:53:46.087Z,96292.00
2022-12-01T22:56:36.710Z,96285.44
2022-12-01T22:59:14.757Z,96261.63
2022-12-01T23:01:48.334Z,96285.16
2022-12-01T23:04:31.124Z,96281.25
2022-12-01T23:06:57.767Z,96278.56
2022-12-01T23:09:56.866Z,96277.81
2022-12-01T23:12:31.975Z,96271.75
2022-12-01T23:15:14.629Z,96263.72
2022-12-01T23:17:41.296Z,96279.50
2022-12-01T23:20:10.958Z,96282.75
2022-12-01T23:22:38.601Z,96278.56
2022-12-01T23:25:16.126Z,96279.16
2022-12-01T23:27:44.981Z,96242.03
2022-12-01T23:30:13.663Z,96269.19
2022-12-01T23:32:40.389Z,96252.72
2022-12-01T23:35:13.701Z,96272.22
2022-12-01T23:37:42.172Z,96254.78
2022-12-01T23:40:29.101Z,96256.72
2022-12-01T23:43:02.552Z,96262.97
2022-12-01T23:45:29.283Z,96266.84
2022-12-01T23:47:56.909Z,96213.47
2022-12-01T23:50:26.418Z,96236.06
2022-12-01T23:52:53.780Z,96206.19
2022-12-01T23:55:25.563Z,96242.56
2022-12-01T23:57:52.619Z,96242.75
